Latest Weather Observations for Darwin Airport

IDD60901

Issued at 3:51 am CST Saturday 1 October 2016 (issued every 10 minutes, with the page automatically refreshed every 10 minutes)

About weather observations | Map of Darwin area stations | Latest observations for Darwin area | Other Formats
Station Details ID: 014015 Name: DARWIN AIRPORT Lat: -12.42 Lon: 130.89 Height: 30.4 m
Data from the previous 72 hours. | See also: Recent months at Darwin Airport
Date/Time
CST
Temp
°C
App
Temp
°C
Dew
Point
°C
Rel
Hum
%
Delta-T
°C
Wind Press
QNH
hPa
Press
MSL
hPa
Rain since
9am
mm
Dir  Spd
km/h
Gust
km/h
Spd
kts
Gust
kts
01/03:30am 26.0 30.7 25.0 94 0.7 NW 9 13 5 7 1008.7 1008.5 9.8
01/03:00am 26.3 30.9 25.3 94 0.7 NW 11 13 6 7 1008.7 1008.5 9.8
01/02:30am 26.4 31.2 25.1 92 0.9 NW 9 15 5 8 1009.0 1008.8 9.8
01/02:00am 26.8 31.7 25.2 91 1.1 NNW 9 15 5 8 1009.0 1008.8 9.8
01/01:30am 26.8 30.9 25.2 91 1.1 NW 13 15 7 8 1009.2 1009.0 9.8
01/01:00am 26.9 31.6 25.0 89 1.3 NW 9 11 5 6 1009.4 1009.2 9.8
01/12:30am 27.2 31.3 24.6 86 1.8 N 11 13 6 7 1009.6 1009.4 9.8
01/12:00am 27.4 31.2 24.7 85 1.9 NNW 13 17 7 9 1009.5 1009.3 9.8
 
Date/Time
CST
Temp
°C
App
Temp
°C
Dew
Point
°C
Rel
Hum
%
Delta-T
°C
Wind Press
QNH
hPa
Press
MSL
hPa
Rain since
9am
mm
Dir  Spd
km/h
Gust
km/h
Spd
kts
Gust
kts
30/11:30pm 27.2 30.7 24.2 84 2.1 N 13 17 7 9 1009.7 1009.5 9.8
30/11:00pm 26.7 31.1 24.4 87 1.6 N 9 13 5 7 1009.6 1009.4 9.8
30/10:30pm 26.8 30.6 24.0 84 1.9 N 11 13 6 7 1009.3 1009.1 9.8
30/10:00pm 26.9 31.2 24.9 89 1.4 NNW 11 13 6 7 1009.1 1008.9 9.8
30/09:30pm 27.6 32.4 24.4 83 2.2 WNW 7 9 4 5 1009.2 1009.0 9.8
30/09:00pm 27.8 32.7 24.6 83 2.2 NW 7 11 4 6 1009.0 1008.8 9.8
30/08:30pm 27.9 32.6 25.0 84 2.0 WNW 9 13 5 7 1008.8 1008.6 9.8
30/08:00pm 28.1 32.9 25.1 84 2.1 NW 9 13 5 7 1008.6 1008.4 9.8
30/07:30pm 28.3 32.4 25.2 83 2.2 NW 13 17 7 9 1008.1 1007.9 9.8
30/07:00pm 28.4 31.6 25.0 82 2.4 NW 17 20 9 11 1007.5 1007.3 9.8
30/06:30pm 28.5 32.5 25.1 82 2.4 NNW 13 19 7 10 1007.3 1007.1 9.8
30/06:00pm 28.3 31.5 24.3 79 2.8 NNW 15 17 8 9 1007.1 1006.9 9.8
30/05:30pm 27.9 31.5 23.7 78 2.9 NW 11 17 6 9 1007.0 1006.8 9.8
30/05:00pm 26.8 29.6 23.0 79 2.6 NNW 13 17 7 9 1006.7 1006.5 9.8
30/04:30pm 25.1 28.2 22.9 87 1.5 N 11 17 6 9 1006.8 1006.6 9.8
30/04:12pm 24.1 25.6 21.2 84 1.9 ESE 15 19 8 10 1007.6 1007.4 9.4
30/04:00pm 24.1 24.9 20.6 81 2.3 E 17 26 9 14 1008.2 1008.0 6.8
30/03:42pm 23.6 23.0 21.3 87 1.5 ENE 26 39 14 21 1008.2 1008.0 4.6
30/03:30pm 24.9 23.1 21.1 79 2.5 NE 32 39 17 21 1008.2 1008.0 4.0
30/03:00pm 29.8 29.5 20.3 56 6.3 NW 22 32 12 17 1008.3 1008.1 4.0
30/02:30pm 32.5 34.0 24.4 62 5.7 NW 24 32 13 17 1007.7 1007.5 4.0
30/02:00pm 31.4 33.1 24.1 65 5.1 NW 22 30 12 16 1008.0 1007.8 4.0
30/01:30pm 31.7 33.5 23.6 62 5.6 NW 20 28 11 15 1008.2 1008.0 4.0
30/01:00pm 32.6 35.1 24.5 62 5.7 NW 19 24 10 13 1008.7 1008.5 4.0
30/12:30pm 32.0 34.6 24.0 62 5.6 NW 17 26 9 14 1009.5 1009.3 4.0
30/12:00pm 31.1 34.0 23.9 65 5.0 NW 15 22 8 12 1010.0 1009.8 4.0
30/11:30am 31.0 34.6 25.0 70 4.2 WNW 15 22 8 12 1010.4 1010.2 4.0
30/11:00am 31.6 35.3 24.5 66 5.0 W 13 17 7 9 1010.7 1010.5 4.0
30/10:30am 30.3 35.9 25.7 76 3.3 NNW 7 11 4 6 1010.9 1010.7 3.8
30/10:00am 29.0 36.0 25.8 83 2.3 CALM 0 2 0 1 1011.0 1010.8 3.8
30/09:30am 27.7 33.3 25.7 89 1.4 W 7 9 4 5 1011.0 1010.8 3.2
30/09:18am 27.5 32.5 25.4 88 1.5 WSW 9 13 5 7 1010.9 1010.7 3.2
30/09:10am 28.3 33.6 25.9 87 1.7 SW 9 13 5 7 1010.9 1010.7 1.2
30/09:00am 29.2 34.3 24.9 77 3.0 W 7 11 4 6 1010.8 1010.6 3.6
30/08:30am 29.9 34.2 24.9 74 3.5 WSW 11 13 6 7 1010.5 1010.3 3.6
30/08:00am 28.7 34.6 25.3 82 2.4 W 4 7 2 4 1010.1 1009.9 3.6
30/07:30am 27.2 34.0 25.5 90 1.2 CALM 0 0 0 0 1009.8 1009.6 3.6
30/07:00am 26.3 32.9 25.2 94 0.8 CALM 0 7 0 4 1009.4 1009.2 3.6
30/06:30am 26.0 32.1 25.0 94 0.7 NE 2 7 1 4 1009.0 1008.8 3.6
30/06:00am 25.9 31.0 24.9 94 0.7 ENE 7 9 4 5 1008.7 1008.5 3.6
30/05:30am 26.4 32.5 25.0 92 1.0 WNW 2 7 1 4 1008.3 1008.1 3.6
30/05:00am 27.0 32.2 25.1 89 1.3 NW 7 9 4 5 1008.1 1007.9 3.6
30/04:30am 27.2 31.3 24.6 86 1.8 NNW 11 13 6 7 1007.5 1007.3 3.6
30/04:00am 27.3 31.4 24.6 85 1.9 NNW 11 13 6 7 1007.7 1007.5 3.6
30/03:30am 27.3 31.7 24.4 84 2.0 NNW 9 13 5 7 1007.7 1007.5 3.6
30/03:00am 27.6 31.4 24.7 84 2.0 NW 13 17 7 9 1007.8 1007.6 3.6
30/02:30am 27.6 31.6 25.0 86 1.8 NNW 13 15 7 8 1008.1 1007.9 3.6
30/02:00am 27.8 32.1 24.9 84 2.0 NNW 11 17 6 9 1008.4 1008.2 3.6
30/01:30am 27.8 31.7 24.8 84 2.1 NNW 13 19 7 10 1008.6 1008.4 3.6
30/01:00am 28.2 31.7 24.8 82 2.4 NW 15 19 8 10 1009.0 1008.8 3.6
30/12:30am 28.4 32.2 24.7 80 2.6 NW 13 17 7 9 1009.4 1009.2 3.6
30/12:00am 28.4 31.4 24.7 80 2.6 NW 17 19 9 10 1009.5 1009.3 3.6
 
Date/Time
CST
Temp
°C
App
Temp
°C
Dew
Point
°C
Rel
Hum
%
Delta-T
°C
Wind Press
QNH
hPa
Press
MSL
hPa
Rain since
9am
mm
Dir  Spd
km/h
Gust
km/h
Spd
kts
Gust
kts
29/11:30pm 28.3 32.1 24.7 81 2.5 NNW 13 17 7 9 1009.5 1009.3 3.6
29/11:00pm 28.6 31.6 24.6 79 2.8 NW 17 22 9 12 1009.7 1009.5 3.6
29/10:30pm 28.6 32.0 24.7 79 2.7 NW 15 19 8 10 1009.5 1009.3 3.6
29/10:00pm 28.7 32.4 24.5 78 2.9 NW 13 17 7 9 1009.5 1009.3 3.6
29/09:30pm 28.7 32.2 24.2 76 3.1 NW 13 17 7 9 1009.3 1009.1 3.4
29/09:00pm 28.9 32.3 24.0 75 3.4 NW 13 17 7 9 1009.1 1008.9 3.4
29/08:30pm 28.9 31.6 24.2 76 3.3 WNW 17 19 9 10 1008.8 1008.6 3.4
29/08:00pm 28.7 31.2 24.4 77 3.0 W 19 22 10 12 1008.2 1008.0 3.4
29/07:30pm 28.8 31.1 24.5 77 3.0 WNW 20 24 11 13 1007.7 1007.5 3.4
29/07:00pm 29.0 31.7 25.0 79 2.8 WNW 20 28 11 15 1007.4 1007.2 3.4
29/06:30pm 28.6 31.4 25.2 82 2.4 NW 20 28 11 15 1007.0 1006.8 3.4
29/06:00pm 28.7 31.9 23.0 71 3.9 NW 11 19 6 10 1006.7 1006.5 3.4
29/05:30pm 27.3 30.4 22.1 73 3.5 N 9 13 5 7 1007.0 1006.8 3.4
29/05:27pm 27.1 29.2 22.4 75 3.2 N 15 19 8 10 1006.9 1006.6 -
29/05:19pm 27.0 28.8 22.6 77 3.0 NNW 17 26 9 14 1007.0 1006.8 3.4
29/05:00pm 26.2 27.7 24.3 89 1.3 SW 24 69 13 37 1007.0 1006.8 3.2
29/04:54pm 27.6 28.3 24.3 82 2.3 SSW 28 69 15 37 1007.5 1007.3 0.2
29/04:49pm 28.6 28.9 21.6 66 4.7 S 22 32 12 17 1007.5 1007.3 0.0
29/04:30pm 32.8 34.2 22.8 55 6.9 W 20 32 11 17 1006.8 1006.6 0.0
29/04:00pm 32.3 31.4 21.4 52 7.4 W 28 35 15 19 1006.7 1006.5 0.0
29/03:30pm 32.5 31.1 18.9 44 8.9 W 24 35 13 19 1006.3 1006.1 0.0
29/03:00pm 30.8 30.0 20.8 55 6.7 W 26 35 14 19 1006.5 1006.3 0.0
29/02:30pm 31.4 30.2 21.5 55 6.7 WNW 30 35 16 19 1006.8 1006.6 0.0
29/02:00pm 32.0 31.5 23.5 60 5.9 WNW 32 37 17 20 1007.2 1007.0 0.0
29/01:30pm 33.6 33.9 23.6 56 7.0 WNW 28 33 15 18 1007.8 1007.6 0.0
29/01:00pm 32.8 34.8 23.9 59 6.2 WNW 20 30 11 16 1008.5 1008.3 0.0
29/12:30pm 32.9 34.9 24.0 59 6.2 NW 20 30 11 16 1008.9 1008.7 0.0
29/12:00pm 33.8 35.4 20.7 46 8.8 WNW 13 24 7 13 1009.4 1009.2 0.0
29/11:30am 32.5 34.3 20.4 49 8.1 SW 11 19 6 10 1010.0 1009.8 0.0
29/11:00am 31.9 34.5 22.6 58 6.4 SSW 13 20 7 11 1010.5 1010.3 0.0
29/10:30am 31.6 35.1 22.9 60 6.0 S 9 17 5 9 1010.7 1010.5 0.0
29/10:00am 30.6 34.2 24.3 69 4.4 SW 13 24 7 13 1010.7 1010.5 0.0
29/09:30am 30.4 33.7 23.8 68 4.6 WSW 13 17 7 9 1010.7 1010.5 0.0
29/09:00am 29.9 33.3 24.0 70 4.1 SW 13 19 7 10 1010.5 1010.3 0.0
29/08:30am 29.5 32.7 23.7 71 4.0 WSW 13 17 7 9 1010.2 1010.0 0.0
29/08:00am 29.5 33.2 23.9 72 3.9 W 11 17 6 9 1009.9 1009.7 0.0
29/07:30am 27.9 32.1 24.1 80 2.6 WSW 9 11 5 6 1009.6 1009.4 0.0
29/07:00am 26.0 32.0 24.3 90 1.2 CALM 0 0 0 0 1008.9 1008.7 0.0
29/06:30am 25.8 31.2 23.9 89 1.3 N 2 6 1 3 1008.7 1008.5 0.0
29/06:00am 25.7 30.3 24.1 91 1.1 N 7 9 4 5 1008.3 1008.1 0.0
29/05:30am 25.8 30.9 24.1 90 1.2 NNE 4 7 2 4 1008.1 1007.9 0.0
29/05:00am 25.6 30.3 24.0 91 1.1 NE 6 9 3 5 1007.9 1007.7 0.0
29/04:30am 25.8 31.5 23.8 89 1.4 CALM 0 0 0 0 1007.9 1007.7 0.0
29/04:00am 25.9 31.7 23.9 89 1.4 CALM 0 0 0 0 1007.8 1007.6 0.0
29/03:30am 26.0 31.3 23.7 87 1.6 WSW 2 9 1 5 1007.9 1007.7 0.0
29/03:00am 26.3 32.1 24.0 87 1.6 CALM 0 0 0 0 1008.0 1007.8 0.0
29/02:30am 26.3 32.0 23.8 86 1.7 CALM 0 0 0 0 1008.3 1008.1 0.0
29/02:00am 26.8 32.5 23.7 83 2.1 CALM 0 0 0 0 1008.8 1008.6 0.0
29/01:30am 27.8 32.1 23.7 78 2.8 SW 7 9 4 5 1009.2 1009.0 0.0
29/01:00am 28.2 32.0 23.4 75 3.3 WSW 9 9 5 5 1009.7 1009.5 0.0
29/12:30am 28.3 32.5 23.5 75 3.3 SW 7 9 4 5 1010.0 1009.8 0.0
29/12:00am 28.5 32.4 23.6 75 3.4 WSW 9 9 5 5 1010.0 1009.8 0.0
 
Date/Time
CST
Temp
°C
App
Temp
°C
Dew
Point
°C
Rel
Hum
%
Delta-T
°C
Wind Press
QNH
hPa
Press
MSL
hPa
Rain since
9am
mm
Dir  Spd
km/h
Gust
km/h
Spd
kts
Gust
kts
28/11:30pm 28.4 32.6 23.5 75 3.4 WNW 7 9 4 5 1010.3 1010.1 0.0
28/11:00pm 28.7 32.9 23.5 73 3.6 W 7 11 4 6 1010.4 1010.2 0.0
28/10:30pm 28.9 32.5 23.1 71 4.0 SW 9 11 5 6 1010.4 1010.2 0.0
28/10:00pm 28.9 31.9 22.7 69 4.2 SW 11 15 6 8 1010.3 1010.1 0.0
28/09:30pm 29.3 32.4 22.9 68 4.4 WSW 11 13 6 7 1010.0 1009.8 0.0
28/09:00pm 29.6 32.6 22.6 66 4.8 WSW 11 15 6 8 1009.9 1009.7 0.0
28/08:30pm 29.9 32.8 22.4 64 5.1 WSW 11 15 6 8 1009.6 1009.4 0.0
28/08:00pm 30.0 32.5 22.5 64 5.1 WSW 13 17 7 9 1009.2 1009.0 0.0
28/07:30pm 30.5 32.3 21.1 57 6.3 WSW 13 15 7 8 1008.8 1008.6 0.0
28/07:00pm 31.1 33.5 21.5 56 6.5 WNW 11 15 6 8 1008.5 1008.3 0.0
28/06:30pm 31.2 33.2 21.6 56 6.5 NNW 13 15 7 8 1008.2 1008.0 0.0
28/06:00pm 32.4 33.1 18.8 44 8.9 WNW 13 15 7 8 1008.1 1007.9 0.0
28/05:30pm 33.1 34.0 18.5 42 9.5 NW 11 15 6 8 1007.7 1007.5 0.0
28/05:00pm 33.3 33.6 18.0 40 9.9 WNW 13 19 7 10 1007.7 1007.5 0.0
28/04:30pm 33.7 33.4 17.4 37 10.5 WNW 15 19 8 10 1007.7 1007.5 0.0
28/04:00pm 33.7 33.5 18.4 40 10.0 W 17 22 9 12 1007.7 1007.5 0.0
28/03:30pm 34.1 33.7 18.1 38 10.4 WNW 17 24 9 13 1008.0 1007.8 0.0
28/03:00pm 34.0 33.6 18.0 38 10.4 WNW 17 22 9 12 1008.3 1008.1 0.0
28/02:30pm 33.3 32.9 19.0 42 9.4 WNW 19 26 10 14 1008.9 1008.7 0.0
28/02:00pm 33.1 33.0 20.0 46 8.7 WNW 20 28 11 15 1009.4 1009.2 0.0
28/01:30pm 32.1 32.6 20.9 51 7.5 NW 19 26 10 14 1010.0 1009.8 0.0
28/01:00pm 32.0 32.3 21.5 53 7.1 WNW 22 30 12 16 1010.5 1010.3 0.0
28/12:30pm 32.3 33.2 22.0 54 7.0 WNW 20 30 11 16 1010.9 1010.7 0.0
28/12:00pm 32.2 32.8 22.1 55 6.9 WNW 22 30 12 16 1011.2 1011.0 0.0
28/11:30am 31.6 32.8 22.2 57 6.4 NW 19 28 10 15 1011.5 1011.3 0.0
28/11:00am 30.8 32.5 22.4 61 5.7 NNW 17 22 9 12 1011.8 1011.6 0.0
28/10:30am 30.6 32.4 23.2 64 5.1 NW 19 28 10 15 1012.1 1011.9 0.0
28/10:00am 30.2 32.0 23.5 67 4.6 N 20 30 11 16 1012.3 1012.1 0.0
28/09:30am 29.4 31.6 24.2 73 3.6 N 20 26 11 14 1012.3 1012.1 0.0
28/09:00am 29.3 33.2 24.3 74 3.5 NNE 11 17 6 9 1012.1 1011.9 0.0
28/08:30am 29.0 32.7 24.6 77 3.1 NE 13 15 7 8 1011.9 1011.7 0.0
28/08:00am 27.4 31.5 24.5 84 2.0 NE 11 15 6 8 1011.6 1011.4 0.0
28/07:30am 26.7 31.3 24.8 89 1.3 ENE 9 13 5 7 1011.3 1011.1 0.0
28/07:00am 25.8 31.9 24.5 92 0.9 CALM 0 7 0 4 1010.7 1010.5 0.0
28/06:30am 25.7 30.3 24.1 91 1.1 SSW 7 9 4 5 1010.1 1009.9 0.0
28/06:00am 25.9 30.6 24.3 91 1.1 SSW 7 9 4 5 1009.6 1009.4 0.0
28/05:30am 26.1 30.7 24.2 89 1.3 SW 7 7 4 4 1009.4 1009.2 0.0
28/05:00am 26.8 31.4 24.2 86 1.8 WSW 7 9 4 5 1009.1 1008.9 0.0
28/04:30am 27.4 31.6 24.1 82 2.3 WSW 9 9 5 5 1009.1 1008.9 0.0
28/04:00am 27.6 32.1 24.0 81 2.5 WSW 7 9 4 5 1009.0 1008.8 0.0

Latest Capital City Observations: Canberra | Sydney | Melbourne | Brisbane | Adelaide | Perth | Hobart | Darwin

Other Formats:

Comma delimited format used in spreadsheet applications
http://www.bom.gov.au/fwo/IDD60901/IDD60901.94120.axf

JavaScript Object Notation format (JSON) in row-major order
http://www.bom.gov.au/fwo/IDD60901/IDD60901.94120.json